Terminal Aerodrome Forecast
Issued by NWS Twin Cities, MN

Home | Current Version | Previous Version | Graphics & Text | Print | Product List | Glossary On
Versions: 1 2 3 4 5 6 7 8 9 10 11 12 13 14 15 16 17 18 19 20 21 22 23 24 25 26
000
FTUS43 KMPX 211737
TAFMSP
TAF
KMSP 211737Z 2118/2224 08006KT 4SM BR OVC005
     FM212100 06004KT 2SM BR OVC004
     FM220000 VRB02KT 3/4SM BR VV003
     FM221800 33006KT 4SM BR OVC006=

USA.gov is the U.S. government's official web portal to all federal, state and local government web resources and services.